createdAt,value
2022-08-03T00:01:25.943Z,52.46
2022-08-03T00:03:52.514Z,52.62
2022-08-03T00:06:19.268Z,52.58
2022-08-03T00:08:45.868Z,51.70
2022-08-03T00:11:12.564Z,51.57
2022-08-03T00:13:39.100Z,51.70
2022-08-03T00:16:05.789Z,51.93
2022-08-03T00:18:32.363Z,51.72
2022-08-03T00:20:58.927Z,51.53
2022-08-03T00:23:26.868Z,51.59
2022-08-03T00:25:54.966Z,51.77
2022-08-03T00:28:21.656Z,51.86
2022-08-03T00:30:48.220Z,51.98
2022-08-03T00:33:15.288Z,51.62
2022-08-03T00:35:50.670Z,51.52
2022-08-03T00:38:18.325Z,51.33
2022-08-03T00:40:44.954Z,51.23
2022-08-03T00:43:11.611Z,51.46
2022-08-03T00:45:40.198Z,51.86
2022-08-03T00:48:23.289Z,52.04
2022-08-03T00:50:56.178Z,52.46
2022-08-03T00:53:22.883Z,52.46
2022-08-03T00:55:49.433Z,52.47
2022-08-03T00:58:16.143Z,52.42
2022-08-03T01:00:42.805Z,52.81
2022-08-03T01:03:10.956Z,53.19
2022-08-03T01:05:53.304Z,53.65
2022-08-03T01:08:37.523Z,54.30
2022-08-03T01:11:24.088Z,54.31
2022-08-03T01:14:18.039Z,54.99
2022-08-03T01:16:55.934Z,55.94
2022-08-03T01:19:28.142Z,56.39
2022-08-03T01:22:18.145Z,56.13
2022-08-03T01:24:59.100Z,56.58
2022-08-03T01:27:54.817Z,56.92
2022-08-03T01:30:24.770Z,57.46
2022-08-03T01:33:15.831Z,57.76
2022-08-03T01:35:47.321Z,57.80
2022-08-03T01:38:18.350Z,57.91
2022-08-03T01:40:56.151Z,57.80
2022-08-03T01:43:55.312Z,58.08
2022-08-03T01:46:16.051Z,58.42
2022-08-03T01:48:44.922Z,58.78
2022-08-03T01:51:12.361Z,58.97
2022-08-03T01:53:43.967Z,58.88
2022-08-03T01:56:11.767Z,59.04
2022-08-03T01:58:40.786Z,59.32
2022-08-03T02:01:10.288Z,59.26
2022-08-03T02:04:00.772Z,59.51
2022-08-03T02:07:02.356Z,59.39
2022-08-03T02:09:16.017Z,59.75
2022-08-03T02:11:44.866Z,59.67
2022-08-03T02:14:11.448Z,59.79
2022-08-03T02:16:38.261Z,59.76
2022-08-03T02:19:07.366Z,59.64
2022-08-03T02:21:57.471Z,59.41
2022-08-03T02:24:23.850Z,59.51
2022-08-03T02:26:51.890Z,59.90
2022-08-03T02:29:38.628Z,60.15
2022-08-03T02:32:12.599Z,60.34
2022-08-03T02:34:42.160Z,60.60
2022-08-03T02:37:11.572Z,60.62
2022-08-03T02:39:41.069Z,60.56
2022-08-03T02:42:09.421Z,60.48
2022-08-03T02:44:41.566Z,61.09
2022-08-03T02:47:10.926Z,61.25
2022-08-03T02:49:50.915Z,61.55
2022-08-03T02:52:21.721Z,61.95
2022-08-03T02:54:51.254Z,61.83
2022-08-03T02:57:19.924Z,62.05
2022-08-03T02:59:47.695Z,62.04
2022-08-03T03:02:16.577Z,61.55
2022-08-03T03:05:50.702Z,61.51
2022-08-03T03:07:45.405Z,61.80
2022-08-03T03:10:20.548Z,61.41
2022-08-03T03:12:48.387Z,61.50
2022-08-03T03:15:14.953Z,61.88
2022-08-03T03:17:43.310Z,62.20
2022-08-03T03:20:10.674Z,62.25
2022-08-03T03:22:38.601Z,62.22
2022-08-03T03:25:07.354Z,62.61
2022-08-03T03:27:34.471Z,62.89
2022-08-03T03:30:02.501Z,63.17
2022-08-03T03:32:32.434Z,63.38
2022-08-03T03:35:00.164Z,63.71
2022-08-03T03:37:27.119Z,63.98
2022-08-03T03:39:55.100Z,64.34
2022-08-03T03:42:22.085Z,64.22
2022-08-03T03:44:49.012Z,64.06
2022-08-03T03:47:15.619Z,64.37
2022-08-03T03:49:43.796Z,64.31
2022-08-03T03:52:10.756Z,64.55
2022-08-03T03:54:45.196Z,64.64
2022-08-03T03:57:13.014Z,65.01
2022-08-03T03:59:42.074Z,64.95
2022-08-03T04:02:09.879Z,65.03
2022-08-03T04:04:56.553Z,65.28
2022-08-03T04:07:44.752Z,65.42
2022-08-03T04:10:37.310Z,65.30
2022-08-03T04:13:09.967Z,65.45
2022-08-03T04:15:39.628Z,65.50
2022-08-03T04:18:09.576Z,65.58
2022-08-03T04:20:38.734Z,65.35
2022-08-03T04:23:13.501Z,65.41
2022-08-03T04:25:43.538Z,65.15
2022-08-03T04:28:30.995Z,65.27
2022-08-03T04:30:59.549Z,65.19
2022-08-03T04:33:30.364Z,65.01
2022-08-03T04:36:02.727Z,65.44
2022-08-03T04:38:39.805Z,65.26
2022-08-03T04:41:08.821Z,65.36
2022-08-03T04:43:39.656Z,65.18
2022-08-03T04:46:08.245Z,65.41
2022-08-03T04:48:35.288Z,65.33
2022-08-03T04:51:04.335Z,64.73
2022-08-03T04:53:31.438Z,64.92
2022-08-03T04:56:04.527Z,64.83
2022-08-03T04:58:31.245Z,64.88
2022-08-03T05:00:57.857Z,64.46
2022-08-03T05:03:25.130Z,63.94
2022-08-03T05:06:09.848Z,63.94
2022-08-03T05:08:46.077Z,63.72
2022-08-03T05:11:15.531Z,63.96
2022-08-03T05:13:42.393Z,63.17
2022-08-03T05:16:09.149Z,62.84
2022-08-03T05:18:36.075Z,62.82
2022-08-03T05:21:02.728Z,63.09
2022-08-03T05:23:29.500Z,63.16
2022-08-03T05:25:56.191Z,62.65
2022-08-03T05:28:23.134Z,61.84
2022-08-03T05:30:49.705Z,61.67
2022-08-03T05:33:16.435Z,61.56
2022-08-03T05:36:01.669Z,61.77
2022-08-03T05:38:35.103Z,61.19
2022-08-03T05:41:21.732Z,60.96
2022-08-03T05:43:54.419Z,59.75
2022-08-03T05:46:22.389Z,59.58
2022-08-03T05:48:49.092Z,59.51
2022-08-03T05:51:15.882Z,59.30
2022-08-03T05:53:43.426Z,59.20
2022-08-03T05:56:14.553Z,59.03
2022-08-03T05:58:48.068Z,58.56
2022-08-03T06:01:16.194Z,58.19
2022-08-03T06:03:42.960Z,57.96
2022-08-03T06:06:09.636Z,57.68
2022-08-03T06:08:36.216Z,56.93
2022-08-03T06:11:03.773Z,56.56
2022-08-03T06:13:30.418Z,55.86
2022-08-03T06:15:57.071Z,56.15
2022-08-03T06:18:24.689Z,55.91
2022-08-03T06:20:52.286Z,55.50
2022-08-03T06:23:19.339Z,54.67
2022-08-03T06:25:47.310Z,54.05
2022-08-03T06:28:42.527Z,53.18
2022-08-03T06:31:01.929Z,51.99
2022-08-03T06:33:48.428Z,50.75
2022-08-03T06:36:15.830Z,49.17
2022-08-03T06:38:42.427Z,48.46
2022-08-03T06:41:09.043Z,47.52
2022-08-03T06:43:37.936Z,47.95
2022-08-03T06:46:24.090Z,46.82
2022-08-03T06:48:50.744Z,45.51
2022-08-03T06:51:17.333Z,45.45
2022-08-03T06:53:43.939Z,44.91
2022-08-03T06:56:11.198Z,45.98
2022-08-03T06:58:37.924Z,46.96
2022-08-03T07:01:04.560Z,47.14
2022-08-03T07:03:31.387Z,46.57
2022-08-03T07:05:59.688Z,46.83
2022-08-03T07:08:33.758Z,45.92
2022-08-03T07:11:01.001Z,46.59
2022-08-03T07:13:27.652Z,46.10
2022-08-03T07:15:56.405Z,44.66
2022-08-03T07:18:29.630Z,44.84
2022-08-03T07:20:57.647Z,44.30
2022-08-03T07:23:25.448Z,42.50
2022-08-03T07:25:52.069Z,43.15
2022-08-03T07:28:20.070Z,41.19
2022-08-03T07:30:47.043Z,39.82
2022-08-03T07:33:13.950Z,38.64
2022-08-03T07:35:40.572Z,38.38
2022-08-03T07:38:07.250Z,38.71
2022-08-03T07:40:33.829Z,38.43
2022-08-03T07:43:00.741Z,37.29
2022-08-03T07:45:27.310Z,37.60
2022-08-03T07:47:54.580Z,37.60
2022-08-03T07:50:22.300Z,37.28
2022-08-03T07:52:50.763Z,35.40
2022-08-03T07:55:19.171Z,35.35
2022-08-03T07:57:45.832Z,34.61
2022-08-03T08:00:19.484Z,34.91
2022-08-03T08:02:46.362Z,34.12
2022-08-03T08:05:13.373Z,34.64
2022-08-03T08:07:40.670Z,33.34
2022-08-03T08:10:09.981Z,34.85
2022-08-03T08:12:38.735Z,35.07
2022-08-03T08:15:06.076Z,35.27
2022-08-03T08:17:42.022Z,33.42
2022-08-03T08:20:09.656Z,33.05
2022-08-03T08:22:36.284Z,32.66
2022-08-03T08:25:06.132Z,31.75
2022-08-03T08:28:31.598Z,31.29
2022-08-03T08:30:21.885Z,30.34
2022-08-03T08:32:49.601Z,29.95
2022-08-03T08:35:17.095Z,29.70
2022-08-03T08:37:44.209Z,30.90
2022-08-03T08:40:21.840Z,32.04
2022-08-03T08:42:57.865Z,30.75
2022-08-03T08:45:25.232Z,30.76
2022-08-03T08:47:54.709Z,31.17
2022-08-03T08:50:27.629Z,30.89
2022-08-03T08:52:56.421Z,30.64
2022-08-03T08:55:23.883Z,29.86
2022-08-03T08:58:02.030Z,31.14
2022-08-03T09:00:28.748Z,31.95
2022-08-03T09:02:55.376Z,32.92
2022-08-03T09:05:35.728Z,31.79
2022-08-03T09:08:08.869Z,30.15
2022-08-03T09:10:35.661Z,28.87
2022-08-03T09:13:02.271Z,28.32
2022-08-03T09:15:33.341Z,28.97
2022-08-03T09:18:02.614Z,30.37
2022-08-03T09:20:32.218Z,30.59
2022-08-03T09:23:18.990Z,30.95
2022-08-03T09:25:59.849Z,30.10
2022-08-03T09:29:00.036Z,30.47
2022-08-03T09:31:20.848Z,30.69
2022-08-03T09:33:48.814Z,30.96
2022-08-03T09:36:47.833Z,31.02
2022-08-03T09:39:19.901Z,30.21
2022-08-03T09:42:15.530Z,30.30
2022-08-03T09:44:44.573Z,30.41
2022-08-03T09:47:13.009Z,30.19
2022-08-03T09:49:42.838Z,30.30
2022-08-03T09:52:37.773Z,30.00
2022-08-03T09:55:02.808Z,30.06
2022-08-03T09:57:32.614Z,29.96
2022-08-03T10:00:12.053Z,30.58
2022-08-03T10:02:39.962Z,29.80
2022-08-03T10:05:08.505Z,30.36
2022-08-03T10:07:50.827Z,29.83
2022-08-03T10:10:31.020Z,29.51
2022-08-03T10:13:00.064Z,29.87
2022-08-03T10:16:24.077Z,30.20
2022-08-03T10:18:14.167Z,30.03
2022-08-03T10:20:46.933Z,29.60
2022-08-03T10:23:14.949Z,29.77
2022-08-03T10:25:43.836Z,30.40
2022-08-03T10:28:15.040Z,30.37
2022-08-03T10:30:45.792Z,29.86
2022-08-03T10:33:51.082Z,29.50
2022-08-03T10:36:07.334Z,29.46
2022-08-03T10:38:40.526Z,29.60
2022-08-03T10:41:09.013Z,29.39
2022-08-03T10:43:52.884Z,30.12
2022-08-03T10:46:21.089Z,29.09
2022-08-03T10:48:50.026Z,28.98
2022-08-03T10:51:17.327Z,29.35
2022-08-03T10:53:54.132Z,29.43
2022-08-03T10:56:52.558Z,29.30
2022-08-03T10:59:40.840Z,29.50
2022-08-03T11:02:09.942Z,28.65
2022-08-03T11:04:36.497Z,28.83
2022-08-03T11:07:22.106Z,27.97
2022-08-03T11:09:53.994Z,28.07
2022-08-03T11:12:30.904Z,27.36
2022-08-03T11:15:05.297Z,27.32
2022-08-03T11:17:33.923Z,27.39
2022-08-03T11:20:13.760Z,27.27
2022-08-03T11:22:54.561Z,27.23
2022-08-03T11:25:54.428Z,28.01
2022-08-03T11:28:29.025Z,26.77
2022-08-03T11:30:57.256Z,27.02
2022-08-03T11:33:30.875Z,26.91
2022-08-03T11:36:02.100Z,26.43
2022-08-03T11:38:28.686Z,26.87
2022-08-03T11:40:55.329Z,26.68
2022-08-03T11:43:21.842Z,27.33
2022-08-03T11:46:12.581Z,26.65
2022-08-03T11:48:44.115Z,26.87
2022-08-03T11:51:22.895Z,26.21
2022-08-03T11:53:54.400Z,26.84
2022-08-03T11:56:21.029Z,26.71
2022-08-03T11:58:58.057Z,26.00
2022-08-03T12:01:36.389Z,25.67
2022-08-03T12:04:04.818Z,26.28
2022-08-03T12:06:31.379Z,25.91
2022-08-03T12:08:57.915Z,26.58
2022-08-03T12:11:24.471Z,25.50
2022-08-03T12:14:35.719Z,25.75
2022-08-03T12:16:37.973Z,25.28
2022-08-03T12:19:06.657Z,24.70
2022-08-03T12:21:33.517Z,25.07
2022-08-03T12:24:02.660Z,24.51
2022-08-03T12:26:31.075Z,24.95
2022-08-03T12:28:58.331Z,24.40
2022-08-03T12:31:25.218Z,24.31
2022-08-03T12:34:03.612Z,24.30
2022-08-03T12:36:32.146Z,24.32
2022-08-03T12:39:04.726Z,25.77
2022-08-03T12:41:34.116Z,24.77
2022-08-03T12:44:03.460Z,24.86
2022-08-03T12:46:57.409Z,24.94
2022-08-03T12:49:24.199Z,25.07
2022-08-03T12:51:50.813Z,24.46
2022-08-03T12:54:24.422Z,25.03
2022-08-03T12:57:08.028Z,25.05
2022-08-03T12:59:45.045Z,24.56
2022-08-03T13:02:19.277Z,24.57
2022-08-03T13:04:51.546Z,23.80
2022-08-03T13:07:19.399Z,24.05
2022-08-03T13:09:49.369Z,24.02
2022-08-03T13:12:17.421Z,24.01
2022-08-03T13:14:46.933Z,23.79
2022-08-03T13:17:14.007Z,26.33
2022-08-03T13:19:40.848Z,25.88
2022-08-03T13:22:16.899Z,24.33
2022-08-03T13:24:44.765Z,24.60
2022-08-03T13:27:59.450Z,24.17
2022-08-03T13:29:59.136Z,24.50
2022-08-03T13:32:25.789Z,25.26
2022-08-03T13:34:52.421Z,25.58
2022-08-03T13:37:19.082Z,24.39
2022-08-03T13:39:58.433Z,25.04
2022-08-03T13:42:29.448Z,24.65
2022-08-03T13:44:56.057Z,23.78
2022-08-03T13:47:22.931Z,23.69
2022-08-03T13:49:59.596Z,23.85
2022-08-03T13:52:32.411Z,24.10
2022-08-03T13:54:59.973Z,23.85
2022-08-03T13:58:05.941Z,23.78
2022-08-03T14:00:17.211Z,24.06
2022-08-03T14:02:59.923Z,23.74
2022-08-03T14:05:32.297Z,23.63
2022-08-03T14:08:03.969Z,23.71
2022-08-03T14:10:31.894Z,24.47
2022-08-03T14:13:00.583Z,24.16
2022-08-03T14:15:28.702Z,24.35
2022-08-03T14:17:56.272Z,24.14
2022-08-03T14:20:26.014Z,24.04
2022-08-03T14:23:06.823Z,23.34
2022-08-03T14:25:43.277Z,24.00
2022-08-03T14:28:18.698Z,23.90
2022-08-03T14:30:45.674Z,24.10
2022-08-03T14:33:12.274Z,23.59
2022-08-03T14:35:39.030Z,24.50
2022-08-03T14:38:05.704Z,23.99
2022-08-03T14:40:32.596Z,24.40
2022-08-03T14:42:59.170Z,24.41
2022-08-03T14:45:25.709Z,23.79
2022-08-03T14:50:28.498Z,24.08
2022-08-03T14:50:43.193Z,24.00
2022-08-03T14:53:12.184Z,24.03
2022-08-03T14:55:50.774Z,24.48
2022-08-03T14:58:20.916Z,24.43
2022-08-03T15:00:48.960Z,24.05
2022-08-03T15:03:17.239Z,23.55
2022-08-03T15:05:44.766Z,23.02
2022-08-03T15:08:11.570Z,23.48
2022-08-03T15:10:40.520Z,23.33
2022-08-03T15:13:12.575Z,24.11
2022-08-03T15:15:39.255Z,24.06
2022-08-03T15:18:06.057Z,24.01
2022-08-03T15:20:43.778Z,23.80
2022-08-03T15:23:11.601Z,23.79
2022-08-03T15:26:28.840Z,24.14
2022-08-03T15:28:24.932Z,24.07
2022-08-03T15:30:54.448Z,23.78
2022-08-03T15:33:21.024Z,23.71
2022-08-03T15:35:47.999Z,24.05
2022-08-03T15:38:14.759Z,23.87
2022-08-03T15:40:41.685Z,23.60
2022-08-03T15:43:08.693Z,24.10
2022-08-03T15:45:36.591Z,23.49
2022-08-03T15:48:05.694Z,23.86
2022-08-03T15:50:32.407Z,23.74
2022-08-03T15:52:58.965Z,24.04
2022-08-03T15:55:25.907Z,24.37
2022-08-03T15:59:04.506Z,24.44
2022-08-03T16:00:40.426Z,24.66
2022-08-03T16:03:07.039Z,24.67
2022-08-03T16:05:33.867Z,24.65
2022-08-03T16:08:03.594Z,24.47
2022-08-03T16:10:31.358Z,24.45
2022-08-03T16:13:00.827Z,24.13
2022-08-03T16:15:27.801Z,24.40
2022-08-03T16:17:54.819Z,24.10
2022-08-03T16:20:31.699Z,24.55
2022-08-03T16:23:05.496Z,24.60
2022-08-03T16:25:42.030Z,23.73
2022-08-03T16:28:13.881Z,24.27
2022-08-03T16:30:43.291Z,24.39
2022-08-03T16:33:11.008Z,23.92
2022-08-03T16:35:37.859Z,24.27
2022-08-03T16:38:09.726Z,23.88
2022-08-03T16:40:38.413Z,24.15
2022-08-03T16:43:18.230Z,24.36
2022-08-03T16:45:47.149Z,23.98
2022-08-03T16:48:15.136Z,24.30
2022-08-03T16:50:41.926Z,23.78
2022-08-03T16:53:09.831Z,24.51
2022-08-03T16:55:48.522Z,23.92
2022-08-03T16:58:19.530Z,24.30
2022-08-03T17:01:01.720Z,24.16
2022-08-03T17:04:02.411Z,24.56
2022-08-03T17:06:35.282Z,24.04
2022-08-03T17:09:18.113Z,24.40
2022-08-03T17:11:47.880Z,24.59
2022-08-03T17:14:16.206Z,25.02
2022-08-03T17:16:52.206Z,24.71
2022-08-03T17:19:23.203Z,24.47
2022-08-03T17:21:58.113Z,24.27
2022-08-03T17:24:52.139Z,24.89
2022-08-03T17:28:51.371Z,25.42
2022-08-03T17:30:18.909Z,25.25
2022-08-03T17:32:56.526Z,24.75
2022-08-03T17:35:34.296Z,25.46
2022-08-03T17:38:06.672Z,25.47
2022-08-03T17:40:35.825Z,24.89
2022-08-03T17:44:14.246Z,25.57
2022-08-03T17:45:52.892Z,25.27
2022-08-03T17:48:25.261Z,25.96
2022-08-03T17:50:59.515Z,26.02
2022-08-03T17:53:36.598Z,26.12
2022-08-03T17:56:44.373Z,25.95
2022-08-03T17:59:51.843Z,26.62
2022-08-03T18:02:34.808Z,26.89
2022-08-03T18:05:16.432Z,26.63
2022-08-03T18:07:59.285Z,27.12
2022-08-03T18:10:35.190Z,27.11
2022-08-03T18:13:10.482Z,26.98
2022-08-03T18:15:51.962Z,27.11
2022-08-03T18:18:29.286Z,27.64
2022-08-03T18:21:04.534Z,27.06
2022-08-03T18:23:37.222Z,27.21
2022-08-03T18:26:07.406Z,27.08
2022-08-03T18:28:38.549Z,27.92
2022-08-03T18:31:07.586Z,28.06
2022-08-03T18:34:17.950Z,27.69
2022-08-03T18:36:29.991Z,28.24
2022-08-03T18:38:59.744Z,28.29
2022-08-03T18:41:33.191Z,28.93
2022-08-03T18:44:08.747Z,29.04
2022-08-03T18:47:15.756Z,29.05
2022-08-03T18:50:24.648Z,29.82
2022-08-03T18:53:22.705Z,30.80
2022-08-03T18:56:34.998Z,30.81
2022-08-03T19:02:21.021Z,31.63
2022-08-03T19:04:53.221Z,31.47
2022-08-03T19:07:26.729Z,31.60
2022-08-03T19:09:59.384Z,31.64
2022-08-03T19:12:39.782Z,32.59
2022-08-03T19:15:12.791Z,32.71
2022-08-03T19:17:53.002Z,32.92
2022-08-03T19:20:30.981Z,33.28
2022-08-03T19:22:59.808Z,33.22
2022-08-03T19:25:34.700Z,33.40
2022-08-03T19:28:04.139Z,33.59
2022-08-03T19:30:39.063Z,33.87
2022-08-03T19:33:09.463Z,34.04
2022-08-03T19:35:52.238Z,34.59
2022-08-03T19:38:29.048Z,34.48
2022-08-03T19:41:03.022Z,34.73
2022-08-03T19:43:53.140Z,35.52
2022-08-03T19:46:21.811Z,36.04
2022-08-03T19:48:59.811Z,36.08
2022-08-03T19:52:00.653Z,36.56
2022-08-03T19:54:29.975Z,36.42
2022-08-03T19:57:00.393Z,36.56
2022-08-03T19:59:29.903Z,36.38
2022-08-03T20:01:57.516Z,36.90
2022-08-03T20:04:24.406Z,37.15
2022-08-03T20:06:52.207Z,37.22
2022-08-03T20:09:20.546Z,36.98
2022-08-03T20:11:47.815Z,37.10
2022-08-03T20:14:20.776Z,37.07
2022-08-03T20:16:53.521Z,37.37
2022-08-03T20:19:20.534Z,37.38
2022-08-03T20:21:50.003Z,37.36
2022-08-03T20:24:25.031Z,37.37
2022-08-03T20:26:57.726Z,38.31
2022-08-03T20:29:42.680Z,38.51
2022-08-03T20:32:27.804Z,38.57
2022-08-03T20:34:54.454Z,38.87
2022-08-03T20:37:22.098Z,39.41
2022-08-03T20:39:49.582Z,39.31
2022-08-03T20:42:21.077Z,39.46
2022-08-03T20:45:04.291Z,39.50
2022-08-03T20:47:33.383Z,39.63
2022-08-03T20:50:03.851Z,39.38
2022-08-03T20:52:33.163Z,39.73
2022-08-03T20:54:59.885Z,40.46
2022-08-03T20:57:33.219Z,40.78
2022-08-03T21:00:00.752Z,40.97
2022-08-03T21:02:29.753Z,40.93
2022-08-03T21:04:58.101Z,40.58
2022-08-03T21:08:04.402Z,40.63
2022-08-03T21:10:16.676Z,40.52
2022-08-03T21:12:46.273Z,40.50
2022-08-03T21:13:09.393Z,31.60
2022-08-03T21:16:02.539Z,40.62
2022-08-03T21:18:11.120Z,41.03
2022-08-03T21:20:41.011Z,41.14
2022-08-03T21:23:10.430Z,41.52
2022-08-03T21:25:58.694Z,41.67
2022-08-03T21:28:27.675Z,42.13
2022-08-03T21:30:54.625Z,42.08
2022-08-03T21:33:27.908Z,42.28
2022-08-03T21:35:54.918Z,42.76
2022-08-03T21:38:29.768Z,42.51
2022-08-03T21:40:57.167Z,43.10
2022-08-03T21:43:23.998Z,42.98
2022-08-03T21:45:54.721Z,43.03
2022-08-03T21:48:24.931Z,43.18
2022-08-03T21:50:52.534Z,42.74
2022-08-03T21:53:20.066Z,43.02
2022-08-03T21:56:08.377Z,43.05
2022-08-03T21:59:04.144Z,42.95
2022-08-03T22:01:35.471Z,43.16
2022-08-03T22:04:09.329Z,43.09
2022-08-03T22:06:42.387Z,43.44
2022-08-03T22:09:09.454Z,43.35
2022-08-03T22:11:38.080Z,43.03
2022-08-03T22:14:05.331Z,43.41
2022-08-03T22:16:32.066Z,43.50
2022-08-03T22:18:58.717Z,43.01
2022-08-03T22:21:36.280Z,43.15
2022-08-03T22:24:05.444Z,43.10
2022-08-03T22:26:35.203Z,43.08
2022-08-03T22:29:07.416Z,43.07
2022-08-03T22:31:58.460Z,43.16
2022-08-03T22:34:26.779Z,43.10
2022-08-03T22:37:00.420Z,43.45
2022-08-03T22:39:28.830Z,43.73
2022-08-03T22:41:59.061Z,44.15
2022-08-03T22:44:29.387Z,44.28
2022-08-03T22:46:56.021Z,44.21
2022-08-03T22:49:22.978Z,44.53
2022-08-03T22:51:51.944Z,44.42
2022-08-03T22:54:19.240Z,44.52
2022-08-03T22:56:50.083Z,44.51
2022-08-03T22:59:40.633Z,44.51
2022-08-03T23:02:15.050Z,44.47
2022-08-03T23:05:02.734Z,44.65
2022-08-03T23:07:34.873Z,44.96
2022-08-03T23:10:05.058Z,44.92
2022-08-03T23:12:34.158Z,44.86
2022-08-03T23:15:05.058Z,44.80
2022-08-03T23:17:32.750Z,45.12
2022-08-03T23:20:05.175Z,44.87
2022-08-03T23:22:34.091Z,44.64
2022-08-03T23:25:03.996Z,44.96
2022-08-03T23:27:32.555Z,44.98
2022-08-03T23:30:00.872Z,44.83
2022-08-03T23:32:30.898Z,45.04
2022-08-03T23:35:19.964Z,44.86
2022-08-03T23:38:10.762Z,44.82
2022-08-03T23:40:36.878Z,45.19
2022-08-03T23:43:05.048Z,45.53
2022-08-03T23:45:36.190Z,45.24
2022-08-03T23:48:02.750Z,45.45
2022-08-03T23:50:40.110Z,45.85
2022-08-03T23:53:26.339Z,46.34
2022-08-03T23:56:31.242Z,46.45
2022-08-03T23:59:12.097Z,46.53
